Thompson, Sam
United StatesManBorn 19802004 – 2024Runner id 66700
Events
42
2004 – 2024
Best pace
13.118
km/h · 2007
Best finish
1st
of 66 · 2009
Distance raced
3,816
km · splits not double-counted
Pace over time
km/h · higher is faster
Pace over time: 42 races from 2004 to 2024, ranging from 5.18 to 13.12 kilometres per hour, where higher is faster. A second, age-graded series is drawn above it; the gap between the two is the age credit.
- Actual pace
- Age-graded pace
Results
| Date | Event | Distance | Result | Pace km/h | Placing |
|---|---|---|---|---|---|
| 2004-04-24 | 50km | 4:37:17 h | 10.819 | 4/68 | |
| 2005-03-12 | 50km | 4:00:32 h | 12.472 | 6/79 | |
| 2006-06-03 | Rainier to Ruston Rail-Trail 50 Mile UltraUnited States | 50mi | 7:59:20 h | 10.072 | 3/13 |
| 2006-09-30 | 72mi | 12:19:11 h | 9.405 | 4/18 | |
| 2007-02-03 | 100mi | 22:47:52 h | 7.059 | 45/168 | |
| 2007-04-15 | Peterson Ridge Rumble 60 Km Trail RunUnited States | 60km | 6:00:13 h | 9.994 | 21/98 |
| 2007-04-22 | 50mi | 7:16:54 h | 11.051 | 8/54 | |
| 2007-04-28 | Capitol Peak 50 MilerUnited States | 50mi | 8:34:13 h | 9.389 | 10/36 |
| 2007-05-19 | Watershed Preserve 12 Hr Trail RaceUnited States | 12h | 117.707 km | 9.809 | 2/56 |
| 2007-06-09 | Lake Youngs UltraUnited States | 28.8mi | 3:32:00 h | 13.118 | 3/62 |
| 2007-07-28 | 50mi | 7:52:41 h | 10.214 | 11/144 | |
| 2007-08-04 | 50mi | 8:19:49 h | 9.660 | 2/26 | |
| 2007-08-25 | 100mi | 23:14:00 h | 6.927 | 7/67 | |
| 2007-10-06 | Endurance Challenge - Washington D.C. Trail 50 MilesUnited States | 50mi | 10:32:17 h | 7.636 | 8/25 |
| 2007-10-15 | 72mi | 11:36:06 h | 9.988 | 3/19 | |
| 2007-10-27 | 12h | 80.756 km | 6.730 | 2/5 | |
| 2007-12-01 | Endurance Challenge - California Trail 50 MileUnited States | 50mi | 9:20:02 h | 8.621 | 15/55 |
| 2007-12-22 | 50km | 4:18:55 h | 11.587 | 8/42 | |
| 2008-03-15 | Chuckanut 50KUnited States | 50km | 4:58:54 h | 10.037 | 39/294 |
| 2008-05-10 | Endurance Challenge - Washington Trail 50 MilesUnited States | 50mi | 10:28:12 h | 7.686 | 18/35 |
| 2008-05-17 | Watershed Preserve 12 Hr Trail RaceUnited States | 12h | 97.477 km | 8.123 | 6/53 |
| 2008-12-06 | Endurance Challenge - California Trail 50 MileUnited States | 50mi | 9:08:56 h | 8.795 | 31/137 |
| 2009-03-21 | Chuckanut 50KUnited States | 50km | 4:39:08 h | 10.748 | 24/270 |
| 2009-03-28 | 100km | 8:51:00 h | 11.299 | 1/1 | |
| 2009-04-25 | 100km | 8:42:43 h | 11.478 | 17/87 | |
| 2009-05-16 | Watershed Preserve 12 Hr Trail RaceUnited States | 12h | 128.683 km | 10.724 | 1/66 |
| 2009-06-06 | 50mi | 8:54:01 h | 9.041 | 7/62 | |
| 2009-06-20 | The 20th Century 100K Trail RunUnited States | 100km | 8:53:17 h | 11.251 | 1/14 |
| 2009-07-10 | 100mi | 31:03:13 h | 5.182 | 7/105 | |
| 2009-08-29 | 100mi | 21:47:25 h | 7.386 | 8/96 | |
| 2009-11-21 | 24h | 185.948 km | 7.748 | 1/12 | |
| 2009-12-05 | 50mi | 9:21:39 h | 8.596 | 46/188 | |
| 2010-03-20 | 50km | 5:14:43 h | 9.532 | 83/287 | |
| 2010-04-03 | 50km | 4:35:12 h | 10.901 | 3/22 | |
| 2010-05-15 | 12h | 103.802 km | 8.650 | 8/80 | |
| 2010-06-18 | 100mi | 28:24:59 h | 5.663 | 35/95 | |
| 2011-03-26 | 50km | 5:27:50 h | 9.151 | 5/17 | |
| 2011-06-25 | 100mi | 21:10:08 h | 7.602 | 56/310 | |
| 2021-04-17 | Tortola Torture RaceBritish Virgin Islands | 33.7mi | 6:11:38 h | 8.756 | 1/16 |
| 2022-04-09 | Tortola Torture RaceBritish Virgin Islands | 33.7mi | 7:03:37 h | 7.682 | 8/17 |
| 2022-06-04 | 50km | 4:49:26 h | 10.365 | 11/42 | |
| 2024-04-20 | Tortola Torture RaceBritish Virgin Islands | 33.7mi | 7:27:50 h | 7.266 | 8/15 |